sensor_id;sensor_type;location;lat;lon;timestamp;P1;durP1;ratioP1;P2;durP2;ratioP2
51578;SDS011;47998;53.242;6.386;2023-06-10T00:02:14;8.10;;;4.72;;
51578;SDS011;47998;53.242;6.386;2023-06-10T00:04:42;8.45;;;5.10;;
51578;SDS011;47998;53.242;6.386;2023-06-10T00:07:08;10.35;;;5.55;;
51578;SDS011;47998;53.242;6.386;2023-06-10T00:09:34;7.60;;;4.72;;
51578;SDS011;47998;53.242;6.386;2023-06-10T00:12:02;9.70;;;4.75;;
51578;SDS011;47998;53.242;6.386;2023-06-10T00:14:32;12.30;;;4.90;;
51578;SDS011;47998;53.242;6.386;2023-06-10T00:16:59;8.48;;;4.40;;
51578;SDS011;47998;53.242;6.386;2023-06-10T00:19:24;13.57;;;5.88;;
51578;SDS011;47998;53.242;6.386;2023-06-10T00:21:51;9.48;;;4.75;;
51578;SDS011;47998;53.242;6.386;2023-06-10T00:24:17;9.38;;;4.65;;
51578;SDS011;47998;53.242;6.386;2023-06-10T00:26:43;9.13;;;4.75;;
51578;SDS011;47998;53.242;6.386;2023-06-10T00:29:09;7.80;;;4.55;;
51578;SDS011;47998;53.242;6.386;2023-06-10T00:31:36;13.80;;;5.53;;
51578;SDS011;47998;53.242;6.386;2023-06-10T00:34:02;8.38;;;4.50;;
51578;SDS011;47998;53.242;6.386;2023-06-10T00:36:28;6.35;;;4.00;;
51578;SDS011;47998;53.242;6.386;2023-06-10T00:38:55;11.02;;;5.03;;
51578;SDS011;47998;53.242;6.386;2023-06-10T00:41:22;10.38;;;4.85;;
51578;SDS011;47998;53.242;6.386;2023-06-10T00:43:47;8.00;;;4.63;;
51578;SDS011;47998;53.242;6.386;2023-06-10T00:46:13;9.93;;;4.60;;
51578;SDS011;47998;53.242;6.386;2023-06-10T00:48:40;13.23;;;5.45;;
51578;SDS011;47998;53.242;6.386;2023-06-10T00:51:07;9.15;;;5.00;;
51578;SDS011;47998;53.242;6.386;2023-06-10T00:53:35;9.38;;;4.95;;
51578;SDS011;47998;53.242;6.386;2023-06-10T00:56:02;10.45;;;5.20;;
51578;SDS011;47998;53.242;6.386;2023-06-10T00:58:28;7.75;;;4.38;;
51578;SDS011;47998;53.242;6.386;2023-06-10T01:00:54;14.27;;;5.47;;
51578;SDS011;47998;53.242;6.386;2023-06-10T01:03:20;6.93;;;4.55;;
51578;SDS011;47998;53.242;6.386;2023-06-10T01:05:50;9.45;;;5.30;;
51578;SDS011;47998;53.242;6.386;2023-06-10T01:11:14;9.50;;;5.18;;
51578;SDS011;47998;53.242;6.386;2023-06-10T01:13:59;9.73;;;5.10;;
51578;SDS011;47998;53.242;6.386;2023-06-10T01:16:26;8.85;;;5.10;;
51578;SDS011;47998;53.242;6.386;2023-06-10T01:18:53;8.38;;;4.82;;
51578;SDS011;47998;53.242;6.386;2023-06-10T01:21:22;9.10;;;5.00;;
51578;SDS011;47998;53.242;6.386;2023-06-10T01:23:49;9.68;;;5.15;;
51578;SDS011;47998;53.242;6.386;2023-06-10T01:26:16;8.88;;;5.00;;
51578;SDS011;47998;53.242;6.386;2023-06-10T01:31:21;8.25;;;5.50;;
51578;SDS011;47998;53.242;6.386;2023-06-10T01:34:07;8.60;;;4.82;;
51578;SDS011;47998;53.242;6.386;2023-06-10T01:36:35;10.57;;;5.20;;
51578;SDS011;47998;53.242;6.386;2023-06-10T01:39:02;8.18;;;4.93;;
51578;SDS011;47998;53.242;6.386;2023-06-10T01:41:29;10.73;;;5.28;;
51578;SDS011;47998;53.242;6.386;2023-06-10T01:43:56;9.77;;;4.70;;
51578;SDS011;47998;53.242;6.386;2023-06-10T01:46:22;9.38;;;5.32;;
51578;SDS011;47998;53.242;6.386;2023-06-10T01:48:48;9.13;;;5.28;;
51578;SDS011;47998;53.242;6.386;2023-06-10T01:51:14;10.32;;;5.55;;
51578;SDS011;47998;53.242;6.386;2023-06-10T01:53:40;8.80;;;5.47;;
51578;SDS011;47998;53.242;6.386;2023-06-10T01:56:06;9.18;;;5.95;;
51578;SDS011;47998;53.242;6.386;2023-06-10T01:58:31;9.50;;;5.68;;
51578;SDS011;47998;53.242;6.386;2023-06-10T02:00:58;12.25;;;6.30;;
51578;SDS011;47998;53.242;6.386;2023-06-10T02:03:23;12.18;;;6.32;;
51578;SDS011;47998;53.242;6.386;2023-06-10T02:05:49;10.98;;;6.25;;
51578;SDS011;47998;53.242;6.386;2023-06-10T02:08:15;12.27;;;6.78;;
51578;SDS011;47998;53.242;6.386;2023-06-10T02:10:40;11.85;;;7.10;;
51578;SDS011;47998;53.242;6.386;2023-06-10T02:13:06;15.07;;;7.05;;
51578;SDS011;47998;53.242;6.386;2023-06-10T02:15:32;11.90;;;6.65;;
51578;SDS011;47998;53.242;6.386;2023-06-10T02:17:58;12.45;;;7.30;;
51578;SDS011;47998;53.242;6.386;2023-06-10T02:20:25;13.55;;;8.18;;
51578;SDS011;47998;53.242;6.386;2023-06-10T02:22:51;15.40;;;8.10;;
51578;SDS011;47998;53.242;6.386;2023-06-10T02:25:17;14.75;;;7.03;;
51578;SDS011;47998;53.242;6.386;2023-06-10T02:27:43;10.77;;;7.38;;
51578;SDS011;47998;53.242;6.386;2023-06-10T02:30:08;11.73;;;7.03;;
51578;SDS011;47998;53.242;6.386;2023-06-10T02:32:35;11.55;;;7.22;;
51578;SDS011;47998;53.242;6.386;2023-06-10T02:35:01;10.63;;;6.60;;
51578;SDS011;47998;53.242;6.386;2023-06-10T02:37:27;9.32;;;6.35;;
51578;SDS011;47998;53.242;6.386;2023-06-10T02:39:53;9.88;;;6.85;;
51578;SDS011;47998;53.242;6.386;2023-06-10T02:42:19;15.30;;;7.82;;
51578;SDS011;47998;53.242;6.386;2023-06-10T02:44:45;9.93;;;6.55;;
51578;SDS011;47998;53.242;6.386;2023-06-10T02:47:11;11.05;;;6.55;;
51578;SDS011;47998;53.242;6.386;2023-06-10T02:49:36;10.68;;;6.50;;
51578;SDS011;47998;53.242;6.386;2023-06-10T02:52:02;11.60;;;6.45;;
51578;SDS011;47998;53.242;6.386;2023-06-10T02:54:28;11.95;;;7.25;;
51578;SDS011;47998;53.242;6.386;2023-06-10T02:56:53;13.50;;;6.65;;
51578;SDS011;47998;53.242;6.386;2023-06-10T02:59:21;12.85;;;7.15;;
51578;SDS011;47998;53.242;6.386;2023-06-10T03:01:47;13.48;;;6.63;;
51578;SDS011;47998;53.242;6.386;2023-06-10T03:04:12;10.00;;;6.93;;
51578;SDS011;47998;53.242;6.386;2023-06-10T03:06:41;11.10;;;6.85;;
51578;SDS011;47998;53.242;6.386;2023-06-10T03:09:07;12.93;;;6.63;;
51578;SDS011;47998;53.242;6.386;2023-06-10T03:11:33;11.90;;;6.53;;
51578;SDS011;47998;53.242;6.386;2023-06-10T03:13:59;11.38;;;7.22;;
51578;SDS011;47998;53.242;6.386;2023-06-10T03:16:24;10.88;;;6.82;;
51578;SDS011;47998;53.242;6.386;2023-06-10T03:18:50;11.05;;;5.65;;
51578;SDS011;47998;53.242;6.386;2023-06-10T03:21:17;13.27;;;6.63;;
51578;SDS011;47998;53.242;6.386;2023-06-10T03:23:43;12.32;;;7.50;;
51578;SDS011;47998;53.242;6.386;2023-06-10T03:26:08;13.18;;;7.25;;
51578;SDS011;47998;53.242;6.386;2023-06-10T03:28:35;10.77;;;6.97;;
51578;SDS011;47998;53.242;6.386;2023-06-10T03:31:01;14.90;;;7.55;;
51578;SDS011;47998;53.242;6.386;2023-06-10T03:33:27;16.45;;;7.35;;
51578;SDS011;47998;53.242;6.386;2023-06-10T03:35:52;11.63;;;6.93;;
51578;SDS011;47998;53.242;6.386;2023-06-10T03:38:18;13.23;;;7.78;;
51578;SDS011;47998;53.242;6.386;2023-06-10T03:40:44;13.88;;;6.63;;
51578;SDS011;47998;53.242;6.386;2023-06-10T03:43:10;12.18;;;7.32;;
51578;SDS011;47998;53.242;6.386;2023-06-10T03:45:36;12.88;;;8.07;;
51578;SDS011;47998;53.242;6.386;2023-06-10T03:48:01;12.27;;;8.00;;
51578;SDS011;47998;53.242;6.386;2023-06-10T03:50:28;11.80;;;8.10;;
51578;SDS011;47998;53.242;6.386;2023-06-10T03:52:54;18.05;;;8.45;;
51578;SDS011;47998;53.242;6.386;2023-06-10T03:55:20;12.05;;;7.05;;
51578;SDS011;47998;53.242;6.386;2023-06-10T03:57:47;19.92;;;8.68;;
51578;SDS011;47998;53.242;6.386;2023-06-10T04:00:14;11.88;;;7.20;;
51578;SDS011;47998;53.242;6.386;2023-06-10T04:02:40;14.82;;;8.13;;
51578;SDS011;47998;53.242;6.386;2023-06-10T04:05:14;13.90;;;7.70;;
51578;SDS011;47998;53.242;6.386;2023-06-10T04:07:43;15.70;;;7.93;;
51578;SDS011;47998;53.242;6.386;2023-06-10T04:10:12;15.57;;;8.07;;
51578;SDS011;47998;53.242;6.386;2023-06-10T04:12:38;13.80;;;7.50;;
51578;SDS011;47998;53.242;6.386;2023-06-10T04:15:04;13.48;;;8.18;;
51578;SDS011;47998;53.242;6.386;2023-06-10T04:17:31;11.43;;;7.55;;
51578;SDS011;47998;53.242;6.386;2023-06-10T04:19:57;12.30;;;7.28;;
51578;SDS011;47998;53.242;6.386;2023-06-10T04:22:25;11.48;;;7.57;;
51578;SDS011;47998;53.242;6.386;2023-06-10T04:24:51;12.60;;;8.68;;
51578;SDS011;47998;53.242;6.386;2023-06-10T04:27:17;13.40;;;7.90;;
51578;SDS011;47998;53.242;6.386;2023-06-10T04:29:43;13.18;;;8.48;;
51578;SDS011;47998;53.242;6.386;2023-06-10T04:32:09;18.00;;;8.60;;
51578;SDS011;47998;53.242;6.386;2023-06-10T04:34:35;15.77;;;8.02;;
51578;SDS011;47998;53.242;6.386;2023-06-10T04:37:04;14.18;;;8.18;;
51578;SDS011;47998;53.242;6.386;2023-06-10T04:39:30;15.48;;;8.43;;
51578;SDS011;47998;53.242;6.386;2023-06-10T04:41:55;14.05;;;8.20;;
51578;SDS011;47998;53.242;6.386;2023-06-10T04:44:21;15.90;;;7.90;;
51578;SDS011;47998;53.242;6.386;2023-06-10T04:46:47;19.02;;;9.20;;
51578;SDS011;47998;53.242;6.386;2023-06-10T04:49:13;13.57;;;7.93;;
51578;SDS011;47998;53.242;6.386;2023-06-10T04:51:41;14.50;;;7.10;;
51578;SDS011;47998;53.242;6.386;2023-06-10T04:54:07;16.98;;;7.63;;
51578;SDS011;47998;53.242;6.386;2023-06-10T04:56:33;14.65;;;7.63;;
51578;SDS011;47998;53.242;6.386;2023-06-10T04:58:59;14.95;;;7.70;;
51578;SDS011;47998;53.242;6.386;2023-06-10T05:01:25;15.70;;;7.97;;
51578;SDS011;47998;53.242;6.386;2023-06-10T05:03:51;12.57;;;7.95;;
51578;SDS011;47998;53.242;6.386;2023-06-10T05:06:17;18.35;;;8.50;;
51578;SDS011;47998;53.242;6.386;2023-06-10T05:08:42;13.05;;;7.20;;
51578;SDS011;47998;53.242;6.386;2023-06-10T05:11:08;14.77;;;7.57;;
51578;SDS011;47998;53.242;6.386;2023-06-10T05:13:34;16.55;;;7.68;;
51578;SDS011;47998;53.242;6.386;2023-06-10T05:16:00;17.25;;;6.50;;
51578;SDS011;47998;53.242;6.386;2023-06-10T05:18:25;13.18;;;7.65;;
51578;SDS011;47998;53.242;6.386;2023-06-10T05:20:51;18.23;;;7.38;;
51578;SDS011;47998;53.242;6.386;2023-06-10T05:23:19;14.32;;;6.45;;
51578;SDS011;47998;53.242;6.386;2023-06-10T05:25:45;19.45;;;9.05;;
51578;SDS011;47998;53.242;6.386;2023-06-10T05:28:11;11.98;;;7.18;;
51578;SDS011;47998;53.242;6.386;2023-06-10T05:30:36;10.98;;;6.28;;
51578;SDS011;47998;53.242;6.386;2023-06-10T05:33:03;16.75;;;6.60;;
51578;SDS011;47998;53.242;6.386;2023-06-10T05:35:29;12.73;;;6.65;;
51578;SDS011;47998;53.242;6.386;2023-06-10T05:37:55;15.77;;;6.90;;
51578;SDS011;47998;53.242;6.386;2023-06-10T05:40:21;14.15;;;6.40;;
51578;SDS011;47998;53.242;6.386;2023-06-10T05:42:47;11.68;;;6.80;;
51578;SDS011;47998;53.242;6.386;2023-06-10T05:45:13;12.02;;;5.70;;
51578;SDS011;47998;53.242;6.386;2023-06-10T05:47:38;12.32;;;6.32;;
51578;SDS011;47998;53.242;6.386;2023-06-10T05:50:05;11.88;;;5.68;;
51578;SDS011;47998;53.242;6.386;2023-06-10T05:52:35;10.48;;;5.05;;
51578;SDS011;47998;53.242;6.386;2023-06-10T05:55:04;12.60;;;5.75;;
51578;SDS011;47998;53.242;6.386;2023-06-10T05:57:30;9.45;;;5.75;;
51578;SDS011;47998;53.242;6.386;2023-06-10T05:59:56;11.60;;;5.25;;
51578;SDS011;47998;53.242;6.386;2023-06-10T06:02:22;10.63;;;5.55;;
51578;SDS011;47998;53.242;6.386;2023-06-10T06:04:48;12.75;;;4.97;;
51578;SDS011;47998;53.242;6.386;2023-06-10T06:07:13;11.88;;;5.18;;
51578;SDS011;47998;53.242;6.386;2023-06-10T06:09:39;8.63;;;4.40;;
51578;SDS011;47998;53.242;6.386;2023-06-10T06:12:05;9.73;;;5.53;;
51578;SDS011;47998;53.242;6.386;2023-06-10T06:14:36;15.13;;;5.57;;
51578;SDS011;47998;53.242;6.386;2023-06-10T06:17:03;14.55;;;5.95;;
51578;SDS011;47998;53.242;6.386;2023-06-10T06:19:29;12.23;;;4.75;;
51578;SDS011;47998;53.242;6.386;2023-06-10T06:21:54;11.82;;;4.97;;
51578;SDS011;47998;53.242;6.386;2023-06-10T06:24:20;12.13;;;5.25;;
51578;SDS011;47998;53.242;6.386;2023-06-10T06:26:46;7.28;;;4.55;;
51578;SDS011;47998;53.242;6.386;2023-06-10T06:29:11;11.65;;;5.35;;
51578;SDS011;47998;53.242;6.386;2023-06-10T06:31:37;8.50;;;4.50;;
51578;SDS011;47998;53.242;6.386;2023-06-10T06:34:03;8.63;;;4.15;;
51578;SDS011;47998;53.242;6.386;2023-06-10T06:36:29;8.50;;;4.47;;
51578;SDS011;47998;53.242;6.386;2023-06-10T06:38:55;12.35;;;5.25;;
51578;SDS011;47998;53.242;6.386;2023-06-10T06:41:22;10.50;;;4.72;;
51578;SDS011;47998;53.242;6.386;2023-06-10T06:43:48;11.45;;;4.82;;
51578;SDS011;47998;53.242;6.386;2023-06-10T06:46:13;9.57;;;4.70;;
51578;SDS011;47998;53.242;6.386;2023-06-10T06:48:40;10.55;;;4.82;;
51578;SDS011;47998;53.242;6.386;2023-06-10T06:51:06;8.77;;;4.40;;
51578;SDS011;47998;53.242;6.386;2023-06-10T06:53:32;7.60;;;4.40;;
51578;SDS011;47998;53.242;6.386;2023-06-10T06:55:57;13.80;;;5.50;;
51578;SDS011;47998;53.242;6.386;2023-06-10T06:58:23;10.57;;;4.00;;
51578;SDS011;47998;53.242;6.386;2023-06-10T07:00:49;8.35;;;4.32;;
51578;SDS011;47998;53.242;6.386;2023-06-10T07:03:15;8.63;;;4.10;;
51578;SDS011;47998;53.242;6.386;2023-06-10T07:05:41;10.05;;;3.88;;
51578;SDS011;47998;53.242;6.386;2023-06-10T07:08:07;11.57;;;4.57;;
51578;SDS011;47998;53.242;6.386;2023-06-10T07:10:32;12.52;;;4.70;;
51578;SDS011;47998;53.242;6.386;2023-06-10T07:12:58;11.15;;;4.75;;
51578;SDS011;47998;53.242;6.386;2023-06-10T07:15:24;6.72;;;4.15;;
51578;SDS011;47998;53.242;6.386;2023-06-10T07:17:49;9.75;;;4.50;;
51578;SDS011;47998;53.242;6.386;2023-06-10T07:20:15;7.75;;;4.07;;
51578;SDS011;47998;53.242;6.386;2023-06-10T07:22:42;8.13;;;3.90;;
51578;SDS011;47998;53.242;6.386;2023-06-10T07:25:08;9.40;;;4.35;;
51578;SDS011;47998;53.242;6.386;2023-06-10T07:27:33;8.00;;;4.50;;
51578;SDS011;47998;53.242;6.386;2023-06-10T07:30:02;7.57;;;4.70;;
51578;SDS011;47998;53.242;6.386;2023-06-10T07:32:29;9.43;;;4.90;;
51578;SDS011;47998;53.242;6.386;2023-06-10T07:34:55;8.45;;;4.05;;
51578;SDS011;47998;53.242;6.386;2023-06-10T07:37:21;6.32;;;4.05;;
51578;SDS011;47998;53.242;6.386;2023-06-10T07:39:46;9.20;;;4.30;;
51578;SDS011;47998;53.242;6.386;2023-06-10T07:42:12;8.13;;;3.95;;
51578;SDS011;47998;53.242;6.386;2023-06-10T07:44:38;7.07;;;4.05;;
51578;SDS011;47998;53.242;6.386;2023-06-10T07:47:04;8.30;;;4.28;;
51578;SDS011;47998;53.242;6.386;2023-06-10T07:49:29;7.47;;;4.18;;
51578;SDS011;47998;53.242;6.386;2023-06-10T07:51:55;10.80;;;4.45;;
51578;SDS011;47998;53.242;6.386;2023-06-10T07:54:21;8.80;;;4.07;;
51578;SDS011;47998;53.242;6.386;2023-06-10T07:56:47;7.15;;;3.78;;
51578;SDS011;47998;53.242;6.386;2023-06-10T07:59:13;7.85;;;4.03;;
51578;SDS011;47998;53.242;6.386;2023-06-10T08:01:39;8.80;;;4.35;;
51578;SDS011;47998;53.242;6.386;2023-06-10T08:04:05;11.00;;;4.60;;
51578;SDS011;47998;53.242;6.386;2023-06-10T08:06:31;6.88;;;4.32;;
51578;SDS011;47998;53.242;6.386;2023-06-10T08:08:57;7.45;;;4.20;;
51578;SDS011;47998;53.242;6.386;2023-06-10T08:11:23;8.75;;;4.30;;
51578;SDS011;47998;53.242;6.386;2023-06-10T08:13:50;8.30;;;3.88;;
51578;SDS011;47998;53.242;6.386;2023-06-10T08:16:16;8.25;;;4.88;;
51578;SDS011;47998;53.242;6.386;2023-06-10T08:18:42;5.00;;;3.75;;
51578;SDS011;47998;53.242;6.386;2023-06-10T08:21:08;11.23;;;4.43;;
51578;SDS011;47998;53.242;6.386;2023-06-10T08:23:33;10.80;;;5.15;;
51578;SDS011;47998;53.242;6.386;2023-06-10T08:25:59;6.75;;;4.18;;
51578;SDS011;47998;53.242;6.386;2023-06-10T08:28:25;7.93;;;4.35;;
51578;SDS011;47998;53.242;6.386;2023-06-10T08:30:50;6.78;;;3.90;;
51578;SDS011;47998;53.242;6.386;2023-06-10T08:33:16;8.32;;;3.38;;
51578;SDS011;47998;53.242;6.386;2023-06-10T08:35:42;7.28;;;3.55;;
51578;SDS011;47998;53.242;6.386;2023-06-10T08:38:08;9.30;;;4.20;;
51578;SDS011;47998;53.242;6.386;2023-06-10T08:40:34;8.52;;;3.92;;
51578;SDS011;47998;53.242;6.386;2023-06-10T08:43:06;8.38;;;4.40;;
51578;SDS011;47998;53.242;6.386;2023-06-10T08:45:34;8.52;;;4.88;;
51578;SDS011;47998;53.242;6.386;2023-06-10T08:48:04;6.45;;;3.88;;
51578;SDS011;47998;53.242;6.386;2023-06-10T08:50:34;8.65;;;3.97;;
51578;SDS011;47998;53.242;6.386;2023-06-10T08:53:04;8.48;;;3.78;;
51578;SDS011;47998;53.242;6.386;2023-06-10T08:55:38;7.75;;;3.85;;
51578;SDS011;47998;53.242;6.386;2023-06-10T08:58:06;6.55;;;3.65;;
51578;SDS011;47998;53.242;6.386;2023-06-10T09:00:32;7.82;;;3.90;;
51578;SDS011;47998;53.242;6.386;2023-06-10T09:03:00;6.32;;;3.15;;
51578;SDS011;47998;53.242;6.386;2023-06-10T09:05:27;15.02;;;4.05;;
51578;SDS011;47998;53.242;6.386;2023-06-10T09:07:54;6.68;;;3.90;;
51578;SDS011;47998;53.242;6.386;2023-06-10T09:10:22;10.05;;;3.78;;
51578;SDS011;47998;53.242;6.386;2023-06-10T09:12:48;11.15;;;3.78;;
51578;SDS011;47998;53.242;6.386;2023-06-10T09:15:14;9.38;;;3.70;;
51578;SDS011;47998;53.242;6.386;2023-06-10T09:17:42;7.93;;;3.72;;
51578;SDS011;47998;53.242;6.386;2023-06-10T09:20:08;8.93;;;4.05;;
51578;SDS011;47998;53.242;6.386;2023-06-10T09:22:34;8.05;;;3.47;;
51578;SDS011;47998;53.242;6.386;2023-06-10T09:25:12;9.27;;;3.30;;
51578;SDS011;47998;53.242;6.386;2023-06-10T09:27:46;11.35;;;3.90;;
51578;SDS011;47998;53.242;6.386;2023-06-10T09:30:24;6.38;;;3.63;;
51578;SDS011;47998;53.242;6.386;2023-06-10T09:32:55;6.45;;;3.40;;
51578;SDS011;47998;53.242;6.386;2023-06-10T09:35:25;5.72;;;3.53;;
51578;SDS011;47998;53.242;6.386;2023-06-10T09:37:53;5.88;;;3.40;;
51578;SDS011;47998;53.242;6.386;2023-06-10T09:40:20;5.95;;;3.40;;
51578;SDS011;47998;53.242;6.386;2023-06-10T09:42:45;7.47;;;3.67;;
51578;SDS011;47998;53.242;6.386;2023-06-10T09:45:18;5.38;;;3.22;;
51578;SDS011;47998;53.242;6.386;2023-06-10T09:47:45;6.63;;;3.20;;
51578;SDS011;47998;53.242;6.386;2023-06-10T09:50:18;7.78;;;3.53;;
51578;SDS011;47998;53.242;6.386;2023-06-10T09:52:44;7.90;;;3.40;;
51578;SDS011;47998;53.242;6.386;2023-06-10T09:55:11;5.72;;;3.47;;
51578;SDS011;47998;53.242;6.386;2023-06-10T09:57:37;6.63;;;3.72;;
51578;SDS011;47998;53.242;6.386;2023-06-10T10:00:10;8.13;;;3.30;;
51578;SDS011;47998;53.242;6.386;2023-06-10T10:02:50;10.05;;;4.05;;
51578;SDS011;47998;53.242;6.386;2023-06-10T10:05:19;5.63;;;3.40;;
51578;SDS011;47998;53.242;6.386;2023-06-10T10:07:46;6.93;;;3.50;;
51578;SDS011;47998;53.242;6.386;2023-06-10T10:10:13;6.25;;;3.20;;
51578;SDS011;47998;53.242;6.386;2023-06-10T10:12:40;4.95;;;3.22;;
51578;SDS011;47998;53.242;6.386;2023-06-10T10:15:12;6.00;;;3.83;;
51578;SDS011;47998;53.242;6.386;2023-06-10T10:17:44;6.60;;;3.78;;
51578;SDS011;47998;53.242;6.386;2023-06-10T10:20:14;7.72;;;3.30;;
51578;SDS011;47998;53.242;6.386;2023-06-10T10:22:45;5.15;;;3.53;;
51578;SDS011;47998;53.242;6.386;2023-06-10T10:25:17;6.88;;;4.00;;
51578;SDS011;47998;53.242;6.386;2023-06-10T10:30:17;6.78;;;3.15;;
51578;SDS011;47998;53.242;6.386;2023-06-10T10:35:33;6.93;;;3.92;;
51578;SDS011;47998;53.242;6.386;2023-06-10T10:37:59;7.97;;;3.78;;
51578;SDS011;47998;53.242;6.386;2023-06-10T10:40:27;7.20;;;2.85;;
51578;SDS011;47998;53.242;6.386;2023-06-10T10:42:55;7.28;;;3.78;;
51578;SDS011;47998;53.242;6.386;2023-06-10T10:45:21;8.05;;;3.90;;
51578;SDS011;47998;53.242;6.386;2023-06-10T10:47:51;5.80;;;3.05;;
51578;SDS011;47998;53.242;6.386;2023-06-10T10:50:18;6.47;;;3.17;;
51578;SDS011;47998;53.242;6.386;2023-06-10T10:52:57;6.30;;;3.40;;
51578;SDS011;47998;53.242;6.386;2023-06-10T10:55:28;9.02;;;3.10;;
51578;SDS011;47998;53.242;6.386;2023-06-10T11:00:37;7.00;;;4.03;;
51578;SDS011;47998;53.242;6.386;2023-06-10T11:03:16;6.03;;;2.70;;
51578;SDS011;47998;53.242;6.386;2023-06-10T11:05:45;5.43;;;3.00;;
51578;SDS011;47998;53.242;6.386;2023-06-10T11:08:15;5.78;;;3.03;;
51578;SDS011;47998;53.242;6.386;2023-06-10T11:16:43;4.57;;;2.75;;
51578;SDS011;47998;53.242;6.386;2023-06-10T11:19:09;6.88;;;3.45;;
51578;SDS011;47998;53.242;6.386;2023-06-10T11:22:18;5.78;;;2.67;;
51578;SDS011;47998;53.242;6.386;2023-06-10T11:24:35;5.63;;;2.60;;
51578;SDS011;47998;53.242;6.386;2023-06-10T11:27:16;7.22;;;2.75;;
51578;SDS011;47998;53.242;6.386;2023-06-10T11:32:31;5.30;;;2.92;;
51578;SDS011;47998;53.242;6.386;2023-06-10T11:34:58;5.32;;;2.72;;
51578;SDS011;47998;53.242;6.386;2023-06-10T11:37:24;5.85;;;3.40;;
51578;SDS011;47998;53.242;6.386;2023-06-10T11:39:53;4.05;;;2.58;;
51578;SDS011;47998;53.242;6.386;2023-06-10T11:42:21;4.75;;;2.45;;
51578;SDS011;47998;53.242;6.386;2023-06-10T11:44:50;7.47;;;2.90;;
51578;SDS011;47998;53.242;6.386;2023-06-10T11:47:20;4.55;;;2.80;;
51578;SDS011;47998;53.242;6.386;2023-06-10T11:49:55;6.30;;;2.95;;
51578;SDS011;47998;53.242;6.386;2023-06-10T11:52:33;5.05;;;2.83;;
51578;SDS011;47998;53.242;6.386;2023-06-10T11:55:06;4.45;;;2.60;;
51578;SDS011;47998;53.242;6.386;2023-06-10T11:57:35;8.10;;;2.65;;
51578;SDS011;47998;53.242;6.386;2023-06-10T12:00:05;5.03;;;2.58;;
51578;SDS011;47998;53.242;6.386;2023-06-10T12:02:31;3.80;;;2.40;;
51578;SDS011;47998;53.242;6.386;2023-06-10T12:05:09;5.22;;;3.03;;
51578;SDS011;47998;53.242;6.386;2023-06-10T12:07:38;6.50;;;2.47;;
51578;SDS011;47998;53.242;6.386;2023-06-10T12:10:03;9.82;;;3.30;;
51578;SDS011;47998;53.242;6.386;2023-06-10T12:12:30;4.72;;;2.42;;
51578;SDS011;47998;53.242;6.386;2023-06-10T12:14:59;5.53;;;2.90;;
51578;SDS011;47998;53.242;6.386;2023-06-10T12:20:01;7.53;;;2.97;;
51578;SDS011;47998;53.242;6.386;2023-06-10T12:22:36;5.53;;;2.22;;
51578;SDS011;47998;53.242;6.386;2023-06-10T12:25:11;5.05;;;2.72;;
51578;SDS011;47998;53.242;6.386;2023-06-10T12:27:37;5.63;;;2.63;;
51578;SDS011;47998;53.242;6.386;2023-06-10T12:30:06;4.20;;;2.45;;
51578;SDS011;47998;53.242;6.386;2023-06-10T12:35:03;6.55;;;3.42;;
51578;SDS011;47998;53.242;6.386;2023-06-10T12:37:30;6.88;;;3.25;;
51578;SDS011;47998;53.242;6.386;2023-06-10T12:39:58;8.25;;;3.78;;
51578;SDS011;47998;53.242;6.386;2023-06-10T12:42:26;6.10;;;3.25;;
51578;SDS011;47998;53.242;6.386;2023-06-10T12:44:54;6.15;;;3.75;;
51578;SDS011;47998;53.242;6.386;2023-06-10T12:47:28;7.13;;;3.45;;
51578;SDS011;47998;53.242;6.386;2023-06-10T12:49:57;6.63;;;3.47;;
51578;SDS011;47998;53.242;6.386;2023-06-10T12:52:24;7.57;;;3.08;;
51578;SDS011;47998;53.242;6.386;2023-06-10T12:54:50;8.10;;;3.33;;
51578;SDS011;47998;53.242;6.386;2023-06-10T12:57:16;7.53;;;3.72;;
51578;SDS011;47998;53.242;6.386;2023-06-10T12:59:42;8.88;;;3.15;;
51578;SDS011;47998;53.242;6.386;2023-06-10T13:02:15;7.68;;;3.30;;
51578;SDS011;47998;53.242;6.386;2023-06-10T13:04:43;7.65;;;3.20;;
51578;SDS011;47998;53.242;6.386;2023-06-10T13:07:09;8.10;;;3.60;;
51578;SDS011;47998;53.242;6.386;2023-06-10T13:09:35;6.78;;;3.63;;
51578;SDS011;47998;53.242;6.386;2023-06-10T13:12:01;9.10;;;3.95;;
51578;SDS011;47998;53.242;6.386;2023-06-10T13:14:28;13.25;;;4.18;;
51578;SDS011;47998;53.242;6.386;2023-06-10T13:16:54;6.75;;;3.05;;
51578;SDS011;47998;53.242;6.386;2023-06-10T13:19:20;8.82;;;3.65;;
51578;SDS011;47998;53.242;6.386;2023-06-10T13:21:48;8.52;;;3.10;;
51578;SDS011;47998;53.242;6.386;2023-06-10T13:24:14;8.80;;;3.40;;
51578;SDS011;47998;53.242;6.386;2023-06-10T13:26:40;8.85;;;3.72;;
51578;SDS011;47998;53.242;6.386;2023-06-10T13:29:05;7.53;;;3.13;;
51578;SDS011;47998;53.242;6.386;2023-06-10T13:31:33;12.20;;;4.30;;
51578;SDS011;47998;53.242;6.386;2023-06-10T13:33:59;8.77;;;3.63;;
51578;SDS011;47998;53.242;6.386;2023-06-10T13:36:24;7.60;;;3.47;;
51578;SDS011;47998;53.242;6.386;2023-06-10T13:38:52;6.63;;;3.17;;
51578;SDS011;47998;53.242;6.386;2023-06-10T13:41:18;10.13;;;3.53;;
51578;SDS011;47998;53.242;6.386;2023-06-10T13:43:44;9.77;;;3.17;;
51578;SDS011;47998;53.242;6.386;2023-06-10T13:46:10;9.30;;;4.20;;
51578;SDS011;47998;53.242;6.386;2023-06-10T13:48:35;7.30;;;2.90;;
51578;SDS011;47998;53.242;6.386;2023-06-10T13:51:04;9.85;;;3.58;;
51578;SDS011;47998;53.242;6.386;2023-06-10T13:53:30;5.70;;;3.20;;
51578;SDS011;47998;53.242;6.386;2023-06-10T13:55:55;7.57;;;3.65;;
51578;SDS011;47998;53.242;6.386;2023-06-10T13:58:21;9.13;;;3.00;;
51578;SDS011;47998;53.242;6.386;2023-06-10T14:00:47;11.20;;;3.30;;
51578;SDS011;47998;53.242;6.386;2023-06-10T14:03:12;11.32;;;3.25;;
51578;SDS011;47998;53.242;6.386;2023-06-10T14:05:38;6.00;;;2.80;;
51578;SDS011;47998;53.242;6.386;2023-06-10T14:08:04;6.28;;;3.22;;
51578;SDS011;47998;53.242;6.386;2023-06-10T14:10:30;7.53;;;3.03;;
51578;SDS011;47998;53.242;6.386;2023-06-10T14:12:56;7.57;;;2.97;;
51578;SDS011;47998;53.242;6.386;2023-06-10T14:15:21;7.28;;;2.83;;
51578;SDS011;47998;53.242;6.386;2023-06-10T14:17:47;6.28;;;3.00;;
51578;SDS011;47998;53.242;6.386;2023-06-10T14:20:13;8.60;;;3.65;;
51578;SDS011;47998;53.242;6.386;2023-06-10T14:22:38;5.70;;;2.85;;
51578;SDS011;47998;53.242;6.386;2023-06-10T14:25:04;8.95;;;3.60;;
51578;SDS011;47998;53.242;6.386;2023-06-10T14:27:31;8.43;;;3.03;;
51578;SDS011;47998;53.242;6.386;2023-06-10T14:29:56;8.23;;;3.20;;
51578;SDS011;47998;53.242;6.386;2023-06-10T14:32:22;12.93;;;3.35;;
51578;SDS011;47998;53.242;6.386;2023-06-10T14:34:49;5.07;;;2.67;;
51578;SDS011;47998;53.242;6.386;2023-06-10T14:37:15;8.70;;;3.35;;
51578;SDS011;47998;53.242;6.386;2023-06-10T14:39:40;8.73;;;3.05;;
51578;SDS011;47998;53.242;6.386;2023-06-10T14:42:06;10.02;;;3.00;;
51578;SDS011;47998;53.242;6.386;2023-06-10T14:44:32;6.13;;;3.33;;
51578;SDS011;47998;53.242;6.386;2023-06-10T14:47:02;8.55;;;3.00;;
51578;SDS011;47998;53.242;6.386;2023-06-10T14:49:28;8.18;;;2.70;;
51578;SDS011;47998;53.242;6.386;2023-06-10T14:51:54;9.43;;;3.83;;
51578;SDS011;47998;53.242;6.386;2023-06-10T14:54:20;5.35;;;2.90;;
51578;SDS011;47998;53.242;6.386;2023-06-10T14:56:46;6.60;;;2.80;;
51578;SDS011;47998;53.242;6.386;2023-06-10T14:59:12;8.55;;;2.72;;
51578;SDS011;47998;53.242;6.386;2023-06-10T15:01:38;9.02;;;2.97;;
51578;SDS011;47998;53.242;6.386;2023-06-10T15:04:04;8.10;;;3.00;;
51578;SDS011;47998;53.242;6.386;2023-06-10T15:06:30;9.27;;;3.20;;
51578;SDS011;47998;53.242;6.386;2023-06-10T15:08:58;4.63;;;2.22;;
51578;SDS011;47998;53.242;6.386;2023-06-10T15:11:23;7.20;;;2.80;;